sensor_id;sensor_type;location;lat;lon;timestamp;temperature;humidity
7842;DHT22;3966;51.052;13.820;2022-08-19T00:00:49;22.50;99.90
7842;DHT22;3966;51.052;13.820;2022-08-19T00:03:15;22.50;99.90
7842;DHT22;3966;51.052;13.820;2022-08-19T00:05:41;22.50;99.90
7842;DHT22;3966;51.052;13.820;2022-08-19T00:08:07;22.50;99.90
7842;DHT22;3966;51.052;13.820;2022-08-19T00:10:32;22.50;99.90
7842;DHT22;3966;51.052;13.820;2022-08-19T00:12:59;22.40;99.90
7842;DHT22;3966;51.052;13.820;2022-08-19T00:15:24;22.40;99.90
7842;DHT22;3966;51.052;13.820;2022-08-19T00:17:50;22.20;99.90
7842;DHT22;3966;51.052;13.820;2022-08-19T00:20:19;22.30;99.90
7842;DHT22;3966;51.052;13.820;2022-08-19T00:22:45;22.30;99.90
7842;DHT22;3966;51.052;13.820;2022-08-19T00:25:11;22.20;99.90
7842;DHT22;3966;51.052;13.820;2022-08-19T00:27:37;22.20;99.90
7842;DHT22;3966;51.052;13.820;2022-08-19T00:30:04;22.20;99.90
7842;DHT22;3966;51.052;13.820;2022-08-19T00:32:30;22.20;99.90
7842;DHT22;3966;51.052;13.820;2022-08-19T00:34:56;22.20;99.90
7842;DHT22;3966;51.052;13.820;2022-08-19T00:37:23;22.10;99.90
7842;DHT22;3966;51.052;13.820;2022-08-19T00:39:49;22.10;99.90
7842;DHT22;3966;51.052;13.820;2022-08-19T00:42:16;22.10;99.90
7842;DHT22;3966;51.052;13.820;2022-08-19T00:44:42;22.10;99.90
7842;DHT22;3966;51.052;13.820;2022-08-19T00:47:08;22.10;99.90
7842;DHT22;3966;51.052;13.820;2022-08-19T00:49:37;22.10;99.90
7842;DHT22;3966;51.052;13.820;2022-08-19T00:52:09;22.00;99.90
7842;DHT22;3966;51.052;13.820;2022-08-19T00:54:37;21.80;99.90
7842;DHT22;3966;51.052;13.820;2022-08-19T00:57:06;21.80;99.90
7842;DHT22;3966;51.052;13.820;2022-08-19T00:59:35;21.90;99.90
7842;DHT22;3966;51.052;13.820;2022-08-19T01:02:02;21.80;99.90
7842;DHT22;3966;51.052;13.820;2022-08-19T01:04:28;21.80;99.90
7842;DHT22;3966;51.052;13.820;2022-08-19T01:06:54;21.80;99.90
7842;DHT22;3966;51.052;13.820;2022-08-19T01:09:20;21.80;99.90
7842;DHT22;3966;51.052;13.820;2022-08-19T01:11:46;21.80;99.90
7842;DHT22;3966;51.052;13.820;2022-08-19T01:14:13;21.70;99.90
7842;DHT22;3966;51.052;13.820;2022-08-19T01:16:40;21.70;99.90
7842;DHT22;3966;51.052;13.820;2022-08-19T01:19:18;21.50;99.90
7842;DHT22;3966;51.052;13.820;2022-08-19T01:21:52;21.60;99.90
7842;DHT22;3966;51.052;13.820;2022-08-19T01:24:18;21.50;99.90
7842;DHT22;3966;51.052;13.820;2022-08-19T01:26:46;21.50;99.90
7842;DHT22;3966;51.052;13.820;2022-08-19T01:29:12;21.50;99.90
7842;DHT22;3966;51.052;13.820;2022-08-19T01:31:38;21.50;99.90
7842;DHT22;3966;51.052;13.820;2022-08-19T01:34:04;21.40;99.90
7842;DHT22;3966;51.052;13.820;2022-08-19T01:36:37;21.50;99.90
7842;DHT22;3966;51.052;13.820;2022-08-19T01:39:06;21.40;99.90
7842;DHT22;3966;51.052;13.820;2022-08-19T01:41:32;21.40;99.90
7842;DHT22;3966;51.052;13.820;2022-08-19T01:43:57;21.40;99.90
7842;DHT22;3966;51.052;13.820;2022-08-19T01:46:23;21.50;99.90
7842;DHT22;3966;51.052;13.820;2022-08-19T01:48:49;21.50;99.90
7842;DHT22;3966;51.052;13.820;2022-08-19T01:51:15;21.50;99.90
7842;DHT22;3966;51.052;13.820;2022-08-19T01:53:41;21.50;99.90
7842;DHT22;3966;51.052;13.820;2022-08-19T01:56:07;21.50;99.90
7842;DHT22;3966;51.052;13.820;2022-08-19T01:58:41;21.40;99.90
7842;DHT22;3966;51.052;13.820;2022-08-19T02:01:10;21.40;99.90
7842;DHT22;3966;51.052;13.820;2022-08-19T02:03:35;21.50;99.90
7842;DHT22;3966;51.052;13.820;2022-08-19T02:06:02;21.50;99.90
7842;DHT22;3966;51.052;13.820;2022-08-19T02:08:29;21.50;99.90
7842;DHT22;3966;51.052;13.820;2022-08-19T02:10:55;21.50;99.90
7842;DHT22;3966;51.052;13.820;2022-08-19T02:13:21;21.50;99.90
7842;DHT22;3966;51.052;13.820;2022-08-19T02:15:47;21.50;99.90
7842;DHT22;3966;51.052;13.820;2022-08-19T02:18:12;21.60;99.90
7842;DHT22;3966;51.052;13.820;2022-08-19T02:20:39;21.60;99.90
7842;DHT22;3966;51.052;13.820;2022-08-19T02:23:06;21.60;99.90
7842;DHT22;3966;51.052;13.820;2022-08-19T02:25:32;21.60;99.90
7842;DHT22;3966;51.052;13.820;2022-08-19T02:27:57;21.50;99.90
7842;DHT22;3966;51.052;13.820;2022-08-19T02:30:23;21.50;99.90
7842;DHT22;3966;51.052;13.820;2022-08-19T02:32:50;21.50;99.90
7842;DHT22;3966;51.052;13.820;2022-08-19T02:35:17;21.50;99.90
7842;DHT22;3966;51.052;13.820;2022-08-19T02:37:43;21.50;99.90
7842;DHT22;3966;51.052;13.820;2022-08-19T02:40:28;21.50;99.90
7842;DHT22;3966;51.052;13.820;2022-08-19T02:42:54;21.50;99.90
7842;DHT22;3966;51.052;13.820;2022-08-19T02:45:19;21.60;99.90
7842;DHT22;3966;51.052;13.820;2022-08-19T02:47:45;21.60;99.90
7842;DHT22;3966;51.052;13.820;2022-08-19T02:50:11;21.60;99.90
7842;DHT22;3966;51.052;13.820;2022-08-19T02:52:37;21.60;99.90
7842;DHT22;3966;51.052;13.820;2022-08-19T02:55:04;21.60;99.90
7842;DHT22;3966;51.052;13.820;2022-08-19T02:57:30;21.60;99.90
7842;DHT22;3966;51.052;13.820;2022-08-19T02:59:57;21.50;99.90
7842;DHT22;3966;51.052;13.820;2022-08-19T03:02:22;21.50;99.90
7842;DHT22;3966;51.052;13.820;2022-08-19T03:04:48;21.50;99.90
7842;DHT22;3966;51.052;13.820;2022-08-19T03:07:14;21.50;99.90
7842;DHT22;3966;51.052;13.820;2022-08-19T03:09:40;21.60;99.90
7842;DHT22;3966;51.052;13.820;2022-08-19T03:12:09;21.60;99.90
7842;DHT22;3966;51.052;13.820;2022-08-19T03:14:36;21.60;99.90
7842;DHT22;3966;51.052;13.820;2022-08-19T03:17:02;21.50;99.90
7842;DHT22;3966;51.052;13.820;2022-08-19T03:19:29;21.50;99.90
7842;DHT22;3966;51.052;13.820;2022-08-19T03:21:55;21.50;99.90
7842;DHT22;3966;51.052;13.820;2022-08-19T03:24:20;21.50;99.90
7842;DHT22;3966;51.052;13.820;2022-08-19T03:26:49;21.50;99.90
7842;DHT22;3966;51.052;13.820;2022-08-19T03:29:16;21.60;99.90
7842;DHT22;3966;51.052;13.820;2022-08-19T03:31:43;21.50;99.90
7842;DHT22;3966;51.052;13.820;2022-08-19T03:34:15;21.50;99.90
7842;DHT22;3966;51.052;13.820;2022-08-19T03:36:42;21.40;99.90
7842;DHT22;3966;51.052;13.820;2022-08-19T03:39:10;21.40;99.90
7842;DHT22;3966;51.052;13.820;2022-08-19T03:41:39;21.40;99.90
7842;DHT22;3966;51.052;13.820;2022-08-19T03:44:06;21.40;99.90
7842;DHT22;3966;51.052;13.820;2022-08-19T03:46:33;21.50;99.90
7842;DHT22;3966;51.052;13.820;2022-08-19T03:49:01;21.50;99.90
7842;DHT22;3966;51.052;13.820;2022-08-19T03:51:30;21.50;99.90
7842;DHT22;3966;51.052;13.820;2022-08-19T03:53:57;21.40;99.90
7842;DHT22;3966;51.052;13.820;2022-08-19T03:56:23;21.50;99.90
7842;DHT22;3966;51.052;13.820;2022-08-19T03:58:51;21.40;99.90
7842;DHT22;3966;51.052;13.820;2022-08-19T04:01:20;21.40;99.90
7842;DHT22;3966;51.052;13.820;2022-08-19T04:03:47;21.50;99.90
7842;DHT22;3966;51.052;13.820;2022-08-19T04:08:44;21.40;99.90
7842;DHT22;3966;51.052;13.820;2022-08-19T04:11:12;21.50;99.90
7842;DHT22;3966;51.052;13.820;2022-08-19T04:13:38;21.40;99.90
7842;DHT22;3966;51.052;13.820;2022-08-19T04:16:05;21.40;99.90
7842;DHT22;3966;51.052;13.820;2022-08-19T04:18:32;21.50;99.90
7842;DHT22;3966;51.052;13.820;2022-08-19T04:20:59;21.50;99.90
7842;DHT22;3966;51.052;13.820;2022-08-19T04:23:25;21.50;99.90
7842;DHT22;3966;51.052;13.820;2022-08-19T04:25:52;21.50;99.90
7842;DHT22;3966;51.052;13.820;2022-08-19T04:28:18;21.50;99.90
7842;DHT22;3966;51.052;13.820;2022-08-19T04:30:46;21.50;99.90
7842;DHT22;3966;51.052;13.820;2022-08-19T04:33:14;21.40;99.90
7842;DHT22;3966;51.052;13.820;2022-08-19T04:35:44;21.40;99.90
7842;DHT22;3966;51.052;13.820;2022-08-19T04:38:11;21.30;99.90
7842;DHT22;3966;51.052;13.820;2022-08-19T04:40:41;21.30;99.90
7842;DHT22;3966;51.052;13.820;2022-08-19T04:43:26;21.30;99.90
7842;DHT22;3966;51.052;13.820;2022-08-19T04:45:52;21.30;99.90
7842;DHT22;3966;51.052;13.820;2022-08-19T04:48:17;21.30;99.90
7842;DHT22;3966;51.052;13.820;2022-08-19T04:50:52;21.30;99.90
7842;DHT22;3966;51.052;13.820;2022-08-19T04:53:29;21.20;99.90
7842;DHT22;3966;51.052;13.820;2022-08-19T04:55:56;21.30;99.90
7842;DHT22;3966;51.052;13.820;2022-08-19T04:58:23;21.20;99.90
7842;DHT22;3966;51.052;13.820;2022-08-19T05:00:50;21.30;99.90
7842;DHT22;3966;51.052;13.820;2022-08-19T05:03:15;21.40;99.90
7842;DHT22;3966;51.052;13.820;2022-08-19T05:05:43;21.40;99.90
7842;DHT22;3966;51.052;13.820;2022-08-19T05:08:13;21.40;99.90
7842;DHT22;3966;51.052;13.820;2022-08-19T05:10:43;21.40;99.90
7842;DHT22;3966;51.052;13.820;2022-08-19T05:13:09;21.40;99.90
7842;DHT22;3966;51.052;13.820;2022-08-19T05:15:36;21.30;99.90
7842;DHT22;3966;51.052;13.820;2022-08-19T05:18:01;21.30;99.90
7842;DHT22;3966;51.052;13.820;2022-08-19T05:20:45;21.30;99.90
7842;DHT22;3966;51.052;13.820;2022-08-19T05:23:29;21.40;99.90
7842;DHT22;3966;51.052;13.820;2022-08-19T05:25:55;21.50;99.90
7842;DHT22;3966;51.052;13.820;2022-08-19T05:28:21;21.40;99.90
7842;DHT22;3966;51.052;13.820;2022-08-19T05:30:47;21.40;99.90
7842;DHT22;3966;51.052;13.820;2022-08-19T05:33:15;21.20;99.90
7842;DHT22;3966;51.052;13.820;2022-08-19T05:35:41;21.20;99.90
7842;DHT22;3966;51.052;13.820;2022-08-19T05:38:07;21.20;99.90
7842;DHT22;3966;51.052;13.820;2022-08-19T05:40:38;21.20;99.90
7842;DHT22;3966;51.052;13.820;2022-08-19T05:43:07;21.10;99.90
7842;DHT22;3966;51.052;13.820;2022-08-19T05:45:38;21.20;99.90
7842;DHT22;3966;51.052;13.820;2022-08-19T05:48:04;21.10;99.90
7842;DHT22;3966;51.052;13.820;2022-08-19T05:50:30;21.00;99.90
7842;DHT22;3966;51.052;13.820;2022-08-19T05:52:56;21.00;99.90
7842;DHT22;3966;51.052;13.820;2022-08-19T05:55:21;21.00;99.90
7842;DHT22;3966;51.052;13.820;2022-08-19T05:57:49;21.00;99.90
7842;DHT22;3966;51.052;13.820;2022-08-19T06:00:14;21.00;99.90
7842;DHT22;3966;51.052;13.820;2022-08-19T06:02:40;21.10;99.90
7842;DHT22;3966;51.052;13.820;2022-08-19T06:05:07;21.00;99.90
7842;DHT22;3966;51.052;13.820;2022-08-19T06:07:35;21.00;99.90
7842;DHT22;3966;51.052;13.820;2022-08-19T06:10:03;20.80;99.90
7842;DHT22;3966;51.052;13.820;2022-08-19T06:12:32;20.90;99.90
7842;DHT22;3966;51.052;13.820;2022-08-19T06:15:02;21.00;99.90
7842;DHT22;3966;51.052;13.820;2022-08-19T06:17:29;21.00;99.90
7842;DHT22;3966;51.052;13.820;2022-08-19T06:19:55;20.90;99.90
7842;DHT22;3966;51.052;13.820;2022-08-19T06:22:21;20.90;99.90
7842;DHT22;3966;51.052;13.820;2022-08-19T06:24:46;20.90;99.90
7842;DHT22;3966;51.052;13.820;2022-08-19T06:27:12;21.00;99.90
7842;DHT22;3966;51.052;13.820;2022-08-19T06:29:37;20.90;99.90
7842;DHT22;3966;51.052;13.820;2022-08-19T06:32:03;20.90;99.90
7842;DHT22;3966;51.052;13.820;2022-08-19T06:34:31;20.90;99.90
7842;DHT22;3966;51.052;13.820;2022-08-19T06:36:59;20.90;99.90
7842;DHT22;3966;51.052;13.820;2022-08-19T06:39:29;21.00;99.90
7842;DHT22;3966;51.052;13.820;2022-08-19T06:41:58;21.00;99.90
7842;DHT22;3966;51.052;13.820;2022-08-19T06:44:26;21.00;99.90
7842;DHT22;3966;51.052;13.820;2022-08-19T06:46:52;21.00;99.90
7842;DHT22;3966;51.052;13.820;2022-08-19T06:49:18;21.00;99.90
7842;DHT22;3966;51.052;13.820;2022-08-19T06:51:46;21.10;99.90
7842;DHT22;3966;51.052;13.820;2022-08-19T06:54:13;21.10;99.90
7842;DHT22;3966;51.052;13.820;2022-08-19T06:56:39;21.10;99.90
7842;DHT22;3966;51.052;13.820;2022-08-19T06:59:10;21.20;99.90
7842;DHT22;3966;51.052;13.820;2022-08-19T07:01:37;21.20;99.90
7842;DHT22;3966;51.052;13.820;2022-08-19T07:04:08;21.10;99.90
7842;DHT22;3966;51.052;13.820;2022-08-19T07:06:34;21.10;99.90
7842;DHT22;3966;51.052;13.820;2022-08-19T07:09:00;21.10;99.90
7842;DHT22;3966;51.052;13.820;2022-08-19T07:11:26;21.10;99.90
7842;DHT22;3966;51.052;13.820;2022-08-19T07:13:52;21.00;99.90
7842;DHT22;3966;51.052;13.820;2022-08-19T07:16:19;21.00;99.90
7842;DHT22;3966;51.052;13.820;2022-08-19T07:18:46;21.00;99.90
7842;DHT22;3966;51.052;13.820;2022-08-19T07:21:22;21.00;99.90
7842;DHT22;3966;51.052;13.820;2022-08-19T07:23:49;21.00;99.90
7842;DHT22;3966;51.052;13.820;2022-08-19T07:26:38;21.00;99.90
7842;DHT22;3966;51.052;13.820;2022-08-19T07:29:05;21.10;99.90
7842;DHT22;3966;51.052;13.820;2022-08-19T07:31:31;21.10;99.90
7842;DHT22;3966;51.052;13.820;2022-08-19T07:34:01;21.10;99.90
7842;DHT22;3966;51.052;13.820;2022-08-19T07:36:28;21.00;99.90
7842;DHT22;3966;51.052;13.820;2022-08-19T07:38:56;21.00;99.90
7842;DHT22;3966;51.052;13.820;2022-08-19T07:41:24;21.00;99.90
7842;DHT22;3966;51.052;13.820;2022-08-19T07:43:50;20.80;99.90
7842;DHT22;3966;51.052;13.820;2022-08-19T07:46:17;20.80;99.90
7842;DHT22;3966;51.052;13.820;2022-08-19T07:48:44;20.90;99.90
7842;DHT22;3966;51.052;13.820;2022-08-19T07:51:15;20.90;99.90
7842;DHT22;3966;51.052;13.820;2022-08-19T07:53:42;20.90;99.90
7842;DHT22;3966;51.052;13.820;2022-08-19T07:56:09;20.80;99.90
7842;DHT22;3966;51.052;13.820;2022-08-19T07:58:38;20.70;99.90
7842;DHT22;3966;51.052;13.820;2022-08-19T08:01:05;20.60;99.90
7842;DHT22;3966;51.052;13.820;2022-08-19T08:03:31;20.60;99.90
7842;DHT22;3966;51.052;13.820;2022-08-19T08:06:15;20.50;99.90
7842;DHT22;3966;51.052;13.820;2022-08-19T08:09:01;20.50;99.90
7842;DHT22;3966;51.052;13.820;2022-08-19T08:11:37;20.50;99.90
7842;DHT22;3966;51.052;13.820;2022-08-19T08:14:03;20.40;99.90
7842;DHT22;3966;51.052;13.820;2022-08-19T08:16:32;20.40;99.90
7842;DHT22;3966;51.052;13.820;2022-08-19T08:19:03;20.40;99.90
7842;DHT22;3966;51.052;13.820;2022-08-19T08:21:28;20.40;99.90
7842;DHT22;3966;51.052;13.820;2022-08-19T08:23:54;20.40;99.90
7842;DHT22;3966;51.052;13.820;2022-08-19T08:26:20;20.40;99.90
7842;DHT22;3966;51.052;13.820;2022-08-19T08:28:46;20.30;99.90
7842;DHT22;3966;51.052;13.820;2022-08-19T08:31:13;20.40;99.90
7842;DHT22;3966;51.052;13.820;2022-08-19T08:33:39;20.40;99.90
7842;DHT22;3966;51.052;13.820;2022-08-19T08:36:08;20.50;99.90
7842;DHT22;3966;51.052;13.820;2022-08-19T08:38:34;20.40;99.90
7842;DHT22;3966;51.052;13.820;2022-08-19T08:41:16;20.40;99.90
7842;DHT22;3966;51.052;13.820;2022-08-19T08:43:45;20.40;99.90
7842;DHT22;3966;51.052;13.820;2022-08-19T08:46:35;20.40;99.90
7842;DHT22;3966;51.052;13.820;2022-08-19T08:49:20;20.30;99.90
7842;DHT22;3966;51.052;13.820;2022-08-19T08:54:59;20.40;99.90
7842;DHT22;3966;51.052;13.820;2022-08-19T08:57:35;20.40;99.90
7842;DHT22;3966;51.052;13.820;2022-08-19T09:00:06;20.60;99.90
7842;DHT22;3966;51.052;13.820;2022-08-19T09:02:32;20.60;99.90
7842;DHT22;3966;51.052;13.820;2022-08-19T09:04:58;20.70;99.90
7842;DHT22;3966;51.052;13.820;2022-08-19T09:07:51;20.80;99.90
7842;DHT22;3966;51.052;13.820;2022-08-19T09:10:38;20.80;99.90
7842;DHT22;3966;51.052;13.820;2022-08-19T09:13:08;20.80;99.90
7842;DHT22;3966;51.052;13.820;2022-08-19T09:15:53;20.80;99.90
7842;DHT22;3966;51.052;13.820;2022-08-19T09:18:20;20.90;99.90
7842;DHT22;3966;51.052;13.820;2022-08-19T09:20:46;20.90;99.90
7842;DHT22;3966;51.052;13.820;2022-08-19T09:23:15;21.00;99.90
7842;DHT22;3966;51.052;13.820;2022-08-19T09:25:41;21.20;99.90
7842;DHT22;3966;51.052;13.820;2022-08-19T09:28:06;21.20;99.90
7842;DHT22;3966;51.052;13.820;2022-08-19T09:30:38;21.30;99.90
7842;DHT22;3966;51.052;13.820;2022-08-19T09:33:04;21.30;99.90
7842;DHT22;3966;51.052;13.820;2022-08-19T09:35:30;21.30;99.90
7842;DHT22;3966;51.052;13.820;2022-08-19T09:37:57;21.40;99.90
7842;DHT22;3966;51.052;13.820;2022-08-19T09:40:24;21.50;99.90
7842;DHT22;3966;51.052;13.820;2022-08-19T09:42:50;21.50;99.90
7842;DHT22;3966;51.052;13.820;2022-08-19T09:45:18;21.50;99.90
7842;DHT22;3966;51.052;13.820;2022-08-19T09:47:45;21.50;99.90
7842;DHT22;3966;51.052;13.820;2022-08-19T09:50:12;21.60;99.90
7842;DHT22;3966;51.052;13.820;2022-08-19T09:52:38;21.70;99.90
7842;DHT22;3966;51.052;13.820;2022-08-19T09:55:09;21.90;99.90
7842;DHT22;3966;51.052;13.820;2022-08-19T09:57:35;21.90;99.90
7842;DHT22;3966;51.052;13.820;2022-08-19T10:00:02;21.90;99.90
7842;DHT22;3966;51.052;13.820;2022-08-19T10:02:28;21.90;99.90
7842;DHT22;3966;51.052;13.820;2022-08-19T10:04:54;21.90;99.90
7842;DHT22;3966;51.052;13.820;2022-08-19T10:07:38;22.10;99.90
7842;DHT22;3966;51.052;13.820;2022-08-19T10:10:05;22.10;99.90
7842;DHT22;3966;51.052;13.820;2022-08-19T10:12:32;22.00;99.90
7842;DHT22;3966;51.052;13.820;2022-08-19T10:14:58;22.10;99.90
7842;DHT22;3966;51.052;13.820;2022-08-19T10:17:24;22.10;99.90
7842;DHT22;3966;51.052;13.820;2022-08-19T10:19:50;22.10;99.90
7842;DHT22;3966;51.052;13.820;2022-08-19T10:22:17;22.10;99.90
7842;DHT22;3966;51.052;13.820;2022-08-19T10:24:43;22.10;99.90
7842;DHT22;3966;51.052;13.820;2022-08-19T10:27:08;22.20;99.90
7842;DHT22;3966;51.052;13.820;2022-08-19T10:29:35;22.30;99.90
7842;DHT22;3966;51.052;13.820;2022-08-19T10:32:06;22.40;99.90
7842;DHT22;3966;51.052;13.820;2022-08-19T10:34:33;22.40;99.90
7842;DHT22;3966;51.052;13.820;2022-08-19T10:36:59;22.40;99.90
7842;DHT22;3966;51.052;13.820;2022-08-19T10:39:26;22.60;99.90
7842;DHT22;3966;51.052;13.820;2022-08-19T10:41:54;22.70;99.90
7842;DHT22;3966;51.052;13.820;2022-08-19T10:44:21;23.00;99.90
7842;DHT22;3966;51.052;13.820;2022-08-19T10:46:48;23.10;99.90
7842;DHT22;3966;51.052;13.820;2022-08-19T10:49:14;23.00;99.90
7842;DHT22;3966;51.052;13.820;2022-08-19T10:51:40;22.90;99.90
7842;DHT22;3966;51.052;13.820;2022-08-19T10:54:24;22.80;99.90
7842;DHT22;3966;51.052;13.820;2022-08-19T10:57:10;22.90;99.90
7842;DHT22;3966;51.052;13.820;2022-08-19T10:59:36;23.10;99.90
7842;DHT22;3966;51.052;13.820;2022-08-19T11:02:04;23.20;99.90
7842;DHT22;3966;51.052;13.820;2022-08-19T11:04:30;23.20;99.90
7842;DHT22;3966;51.052;13.820;2022-08-19T11:06:57;23.20;99.90
7842;DHT22;3966;51.052;13.820;2022-08-19T11:09:24;23.20;99.90
7842;DHT22;3966;51.052;13.820;2022-08-19T11:11:51;23.10;99.90
7842;DHT22;3966;51.052;13.820;2022-08-19T11:14:20;22.90;99.90
7842;DHT22;3966;51.052;13.820;2022-08-19T11:16:47;22.80;99.90
7842;DHT22;3966;51.052;13.820;2022-08-19T11:19:14;22.90;99.90
7842;DHT22;3966;51.052;13.820;2022-08-19T11:21:45;23.00;99.90
7842;DHT22;3966;51.052;13.820;2022-08-19T11:24:22;23.20;99.90
7842;DHT22;3966;51.052;13.820;2022-08-19T11:26:49;23.20;99.90
7842;DHT22;3966;51.052;13.820;2022-08-19T11:29:17;23.30;99.90
7842;DHT22;3966;51.052;13.820;2022-08-19T11:31:45;23.40;99.90
7842;DHT22;3966;51.052;13.820;2022-08-19T11:34:17;23.50;99.90
7842;DHT22;3966;51.052;13.820;2022-08-19T11:36:45;23.50;99.90
7842;DHT22;3966;51.052;13.820;2022-08-19T11:39:14;23.40;99.90
7842;DHT22;3966;51.052;13.820;2022-08-19T11:41:40;23.40;99.90
7842;DHT22;3966;51.052;13.820;2022-08-19T11:44:06;23.50;99.90
7842;DHT22;3966;51.052;13.820;2022-08-19T11:46:36;23.40;99.90
7842;DHT22;3966;51.052;13.820;2022-08-19T11:49:03;23.30;99.90
7842;DHT22;3966;51.052;13.820;2022-08-19T11:51:30;23.20;99.90
7842;DHT22;3966;51.052;13.820;2022-08-19T11:53:57;23.20;99.90
7842;DHT22;3966;51.052;13.820;2022-08-19T11:56:24;23.20;99.90
7842;DHT22;3966;51.052;13.820;2022-08-19T11:58:51;23.10;99.90
7842;DHT22;3966;51.052;13.820;2022-08-19T12:01:20;23.10;99.90
7842;DHT22;3966;51.052;13.820;2022-08-19T12:03:47;23.10;99.90
7842;DHT22;3966;51.052;13.820;2022-08-19T12:06:16;23.10;99.90
7842;DHT22;3966;51.052;13.820;2022-08-19T12:08:44;23.20;99.90
7842;DHT22;3966;51.052;13.820;2022-08-19T12:11:12;23.20;99.90
7842;DHT22;3966;51.052;13.820;2022-08-19T12:13:38;23.10;99.90
7842;DHT22;3966;51.052;13.820;2022-08-19T12:16:09;23.20;99.90
7842;DHT22;3966;51.052;13.820;2022-08-19T12:18:38;23.10;99.90
7842;DHT22;3966;51.052;13.820;2022-08-19T12:21:03;22.90;99.90
7842;DHT22;3966;51.052;13.820;2022-08-19T12:23:29;22.90;99.90
7842;DHT22;3966;51.052;13.820;2022-08-19T12:25:54;22.90;99.90
7842;DHT22;3966;51.052;13.820;2022-08-19T12:28:24;22.90;99.90
7842;DHT22;3966;51.052;13.820;2022-08-19T12:30:50;22.90;99.90
7842;DHT22;3966;51.052;13.820;2022-08-19T12:33:17;22.70;99.90
7842;DHT22;3966;51.052;13.820;2022-08-19T12:35:44;22.60;99.90
7842;DHT22;3966;51.052;13.820;2022-08-19T12:38:12;22.70;99.90
7842;DHT22;3966;51.052;13.820;2022-08-19T12:40:38;22.60;99.90
7842;DHT22;3966;51.052;13.820;2022-08-19T12:43:05;22.60;99.90
7842;DHT22;3966;51.052;13.820;2022-08-19T12:45:31;22.50;99.90
7842;DHT22;3966;51.052;13.820;2022-08-19T12:47:56;22.50;99.90
7842;DHT22;3966;51.052;13.820;2022-08-19T12:50:22;22.60;99.90
7842;DHT22;3966;51.052;13.820;2022-08-19T12:52:47;22.70;99.90
7842;DHT22;3966;51.052;13.820;2022-08-19T12:55:14;22.60;99.90
7842;DHT22;3966;51.052;13.820;2022-08-19T12:57:40;22.70;99.90
7842;DHT22;3966;51.052;13.820;2022-08-19T13:00:11;22.70;99.90
7842;DHT22;3966;51.052;13.820;2022-08-19T13:02:39;22.70;99.90
7842;DHT22;3966;51.052;13.820;2022-08-19T13:05:12;22.60;99.90
7842;DHT22;3966;51.052;13.820;2022-08-19T13:07:40;22.70;99.90
7842;DHT22;3966;51.052;13.820;2022-08-19T13:10:11;22.60;99.90
7842;DHT22;3966;51.052;13.820;2022-08-19T13:12:37;22.60;99.90
7842;DHT22;3966;51.052;13.820;2022-08-19T13:15:03;22.60;99.90
7842;DHT22;3966;51.052;13.820;2022-08-19T13:17:29;22.60;99.90
7842;DHT22;3966;51.052;13.820;2022-08-19T13:19:54;22.80;99.90
7842;DHT22;3966;51.052;13.820;2022-08-19T13:22:20;22.80;99.90
7842;DHT22;3966;51.052;13.820;2022-08-19T13:24:45;23.00;99.90
7842;DHT22;3966;51.052;13.820;2022-08-19T13:27:11;23.00;99.90
7842;DHT22;3966;51.052;13.820;2022-08-19T13:29:36;23.00;99.90
7842;DHT22;3966;51.052;13.820;2022-08-19T13:32:20;23.00;99.90
7842;DHT22;3966;51.052;13.820;2022-08-19T13:35:05;23.10;99.90
7842;DHT22;3966;51.052;13.820;2022-08-19T13:37:30;22.90;99.90
7842;DHT22;3966;51.052;13.820;2022-08-19T13:40:11;23.00;99.90
7842;DHT22;3966;51.052;13.820;2022-08-19T13:42:38;23.00;99.90
7842;DHT22;3966;51.052;13.820;2022-08-19T13:45:05;23.00;99.90
7842;DHT22;3966;51.052;13.820;2022-08-19T13:47:32;22.70;99.90
7842;DHT22;3966;51.052;13.820;2022-08-19T13:50:00;22.60;99.90
7842;DHT22;3966;51.052;13.820;2022-08-19T13:52:25;22.60;99.90
7842;DHT22;3966;51.052;13.820;2022-08-19T13:54:51;22.50;99.90
7842;DHT22;3966;51.052;13.820;2022-08-19T13:57:16;22.50;99.90
7842;DHT22;3966;51.052;13.820;2022-08-19T13:59:42;22.50;99.90
7842;DHT22;3966;51.052;13.820;2022-08-19T14:02:07;22.50;99.90
7842;DHT22;3966;51.052;13.820;2022-08-19T14:04:32;22.40;99.90
7842;DHT22;3966;51.052;13.820;2022-08-19T14:06:58;22.40;99.90
7842;DHT22;3966;51.052;13.820;2022-08-19T14:09:24;22.40;99.90
7842;DHT22;3966;51.052;13.820;2022-08-19T14:11:49;22.40;99.90
7842;DHT22;3966;51.052;13.820;2022-08-19T14:14:16;22.30;99.90
7842;DHT22;3966;51.052;13.820;2022-08-19T14:16:41;22.30;99.90
7842;DHT22;3966;51.052;13.820;2022-08-19T14:19:07;22.40;99.90
7842;DHT22;3966;51.052;13.820;2022-08-19T14:21:33;22.40;99.90
7842;DHT22;3966;51.052;13.820;2022-08-19T14:23:59;22.30;99.90
7842;DHT22;3966;51.052;13.820;2022-08-19T14:26:25;22.30;99.90
7842;DHT22;3966;51.052;13.820;2022-08-19T14:28:51;22.20;99.90
7842;DHT22;3966;51.052;13.820;2022-08-19T14:31:18;22.20;99.90
7842;DHT22;3966;51.052;13.820;2022-08-19T14:33:46;22.10;99.90
7842;DHT22;3966;51.052;13.820;2022-08-19T14:36:12;22.10;99.90
7842;DHT22;3966;51.052;13.820;2022-08-19T14:38:38;22.20;99.90
7842;DHT22;3966;51.052;13.820;2022-08-19T14:41:16;22.20;99.90
7842;DHT22;3966;51.052;13.820;2022-08-19T14:43:43;22.30;99.90
7842;DHT22;3966;51.052;13.820;2022-08-19T14:46:16;22.20;99.90
7842;DHT22;3966;51.052;13.820;2022-08-19T14:48:42;22.20;99.90
7842;DHT22;3966;51.052;13.820;2022-08-19T14:51:08;22.20;99.90
7842;DHT22;3966;51.052;13.820;2022-08-19T14:53:34;22.10;99.90
7842;DHT22;3966;51.052;13.820;2022-08-19T14:56:00;22.20;99.90
7842;DHT22;3966;51.052;13.820;2022-08-19T14:58:27;22.10;99.90
7842;DHT22;3966;51.052;13.820;2022-08-19T15:00:53;22.20;99.90
7842;DHT22;3966;51.052;13.820;2022-08-19T15:03:18;22.20;99.90
7842;DHT22;3966;51.052;13.820;2022-08-19T15:05:44;22.20;99.90
7842;DHT22;3966;51.052;13.820;2022-08-19T15:08:09;22.30;99.90
7842;DHT22;3966;51.052;13.820;2022-08-19T15:10:35;22.30;99.90
7842;DHT22;3966;51.052;13.820;2022-08-19T15:13:01;22.20;99.90
7842;DHT22;3966;51.052;13.820;2022-08-19T15:15:26;22.20;99.90
7842;DHT22;3966;51.052;13.820;2022-08-19T15:17:52;22.10;99.90
7842;DHT22;3966;51.052;13.820;2022-08-19T15:20:19;22.10;99.90
7842;DHT22;3966;51.052;13.820;2022-08-19T15:22:46;22.10;99.90
7842;DHT22;3966;51.052;13.820;2022-08-19T15:25:14;22.10;99.90
7842;DHT22;3966;51.052;13.820;2022-08-19T15:27:41;22.00;99.90
7842;DHT22;3966;51.052;13.820;2022-08-19T15:30:08;22.10;99.90
7842;DHT22;3966;51.052;13.820;2022-08-19T15:32:35;22.00;99.90
7842;DHT22;3966;51.052;13.820;2022-08-19T15:35:01;22.00;99.90
7842;DHT22;3966;51.052;13.820;2022-08-19T15:37:28;21.90;99.90
7842;DHT22;3966;51.052;13.820;2022-08-19T15:39:54;21.90;99.90
7842;DHT22;3966;51.052;13.820;2022-08-19T15:42:19;21.80;99.90
7842;DHT22;3966;51.052;13.820;2022-08-19T15:44:46;21.90;99.90
7842;DHT22;3966;51.052;13.820;2022-08-19T15:47:12;22.00;99.90
7842;DHT22;3966;51.052;13.820;2022-08-19T15:49:38;21.90;99.90
7842;DHT22;3966;51.052;13.820;2022-08-19T15:52:04;22.00;99.90
7842;DHT22;3966;51.052;13.820;2022-08-19T15:54:32;22.00;99.90